sensor_id;sensor_type;location;lat;lon;timestamp;P1;durP1;ratioP1;P2;durP2;ratioP2
68475;SDS011;55464;48.266;14.188;2023-05-15T00:01:29;2.70;;;2.33;;
68475;SDS011;55464;48.266;14.188;2023-05-15T00:03:55;2.95;;;2.65;;
68475;SDS011;55464;48.266;14.188;2023-05-15T00:06:21;2.72;;;2.28;;
68475;SDS011;55464;48.266;14.188;2023-05-15T00:08:46;2.33;;;2.13;;
68475;SDS011;55464;48.266;14.188;2023-05-15T00:11:12;4.78;;;2.00;;
68475;SDS011;55464;48.266;14.188;2023-05-15T00:13:37;2.42;;;2.10;;
68475;SDS011;55464;48.266;14.188;2023-05-15T00:16:06;2.67;;;2.47;;
68475;SDS011;55464;48.266;14.188;2023-05-15T00:18:33;3.17;;;2.15;;
68475;SDS011;55464;48.266;14.188;2023-05-15T00:20:58;2.22;;;2.03;;
68475;SDS011;55464;48.266;14.188;2023-05-15T00:23:23;3.00;;;2.70;;
68475;SDS011;55464;48.266;14.188;2023-05-15T00:25:49;2.78;;;2.55;;
68475;SDS011;55464;48.266;14.188;2023-05-15T00:28:14;3.95;;;2.83;;
68475;SDS011;55464;48.266;14.188;2023-05-15T00:30:40;3.00;;;2.67;;
68475;SDS011;55464;48.266;14.188;2023-05-15T00:33:05;3.17;;;2.88;;
68475;SDS011;55464;48.266;14.188;2023-05-15T00:35:31;5.07;;;2.92;;
68475;SDS011;55464;48.266;14.188;2023-05-15T00:37:57;4.63;;;2.85;;
68475;SDS011;55464;48.266;14.188;2023-05-15T00:40:23;6.72;;;3.10;;
68475;SDS011;55464;48.266;14.188;2023-05-15T00:42:50;3.47;;;3.15;;
68475;SDS011;55464;48.266;14.188;2023-05-15T00:45:16;3.30;;;3.00;;
68475;SDS011;55464;48.266;14.188;2023-05-15T00:47:43;3.90;;;3.47;;
68475;SDS011;55464;48.266;14.188;2023-05-15T00:50:10;3.28;;;2.97;;
68475;SDS011;55464;48.266;14.188;2023-05-15T00:52:36;4.60;;;3.35;;
68475;SDS011;55464;48.266;14.188;2023-05-15T00:55:02;4.07;;;3.50;;
68475;SDS011;55464;48.266;14.188;2023-05-15T00:57:29;3.85;;;3.47;;
68475;SDS011;55464;48.266;14.188;2023-05-15T00:59:55;4.07;;;3.67;;
68475;SDS011;55464;48.266;14.188;2023-05-15T01:02:21;4.40;;;3.83;;
68475;SDS011;55464;48.266;14.188;2023-05-15T01:04:47;4.80;;;4.00;;
68475;SDS011;55464;48.266;14.188;2023-05-15T01:07:13;3.70;;;3.40;;
68475;SDS011;55464;48.266;14.188;2023-05-15T01:09:39;4.93;;;3.92;;
68475;SDS011;55464;48.266;14.188;2023-05-15T01:12:08;4.15;;;3.75;;
68475;SDS011;55464;48.266;14.188;2023-05-15T01:14:34;4.85;;;3.17;;
68475;SDS011;55464;48.266;14.188;2023-05-15T01:17:00;3.80;;;3.25;;
68475;SDS011;55464;48.266;14.188;2023-05-15T01:19:25;3.83;;;3.53;;
68475;SDS011;55464;48.266;14.188;2023-05-15T01:27:46;3.42;;;3.13;;
68475;SDS011;55464;48.266;14.188;2023-05-15T01:35:30;4.18;;;3.47;;
68475;SDS011;55464;48.266;14.188;2023-05-15T01:40:53;3.50;;;3.15;;
68475;SDS011;55464;48.266;14.188;2023-05-15T01:43:41;3.97;;;3.60;;
68475;SDS011;55464;48.266;14.188;2023-05-15T01:46:10;5.22;;;3.50;;
68475;SDS011;55464;48.266;14.188;2023-05-15T01:48:41;4.25;;;3.28;;
68475;SDS011;55464;48.266;14.188;2023-05-15T01:51:09;3.55;;;2.75;;
68475;SDS011;55464;48.266;14.188;2023-05-15T01:53:37;3.25;;;2.72;;
68475;SDS011;55464;48.266;14.188;2023-05-15T01:56:04;3.35;;;3.05;;
68475;SDS011;55464;48.266;14.188;2023-05-15T01:58:32;3.05;;;2.70;;
68475;SDS011;55464;48.266;14.188;2023-05-15T02:00:58;2.72;;;2.53;;
68475;SDS011;55464;48.266;14.188;2023-05-15T02:03:25;4.95;;;2.90;;
68475;SDS011;55464;48.266;14.188;2023-05-15T02:05:51;2.70;;;2.50;;
68475;SDS011;55464;48.266;14.188;2023-05-15T02:08:18;3.47;;;2.63;;
68475;SDS011;55464;48.266;14.188;2023-05-15T02:10:45;3.08;;;2.22;;
68475;SDS011;55464;48.266;14.188;2023-05-15T02:13:11;2.45;;;2.20;;
68475;SDS011;55464;48.266;14.188;2023-05-15T02:15:37;2.33;;;2.15;;
68475;SDS011;55464;48.266;14.188;2023-05-15T02:18:03;2.88;;;2.20;;
68475;SDS011;55464;48.266;14.188;2023-05-15T02:20:29;2.22;;;2.03;;
68475;SDS011;55464;48.266;14.188;2023-05-15T02:22:54;2.20;;;2.00;;
68475;SDS011;55464;48.266;14.188;2023-05-15T02:25:20;1.60;;;1.50;;
68475;SDS011;55464;48.266;14.188;2023-05-15T02:27:57;2.80;;;2.58;;
68475;SDS011;55464;48.266;14.188;2023-05-15T02:35:50;2.17;;;2.00;;
68475;SDS011;55464;48.266;14.188;2023-05-15T02:39:03;2.20;;;2.10;;
68475;SDS011;55464;48.266;14.188;2023-05-15T02:41:11;2.08;;;1.92;;
68475;SDS011;55464;48.266;14.188;2023-05-15T02:43:38;2.75;;;2.53;;
68475;SDS011;55464;48.266;14.188;2023-05-15T02:46:06;1.70;;;1.60;;
68475;SDS011;55464;48.266;14.188;2023-05-15T02:48:33;2.00;;;1.90;;
68475;SDS011;55464;48.266;14.188;2023-05-15T02:51:01;4.28;;;1.60;;
68475;SDS011;55464;48.266;14.188;2023-05-15T02:53:27;3.35;;;1.85;;
68475;SDS011;55464;48.266;14.188;2023-05-15T02:55:53;1.60;;;1.50;;
68475;SDS011;55464;48.266;14.188;2023-05-15T02:58:18;2.10;;;1.90;;
68475;SDS011;55464;48.266;14.188;2023-05-15T03:00:44;2.60;;;2.05;;
68475;SDS011;55464;48.266;14.188;2023-05-15T03:03:09;1.50;;;1.40;;
68475;SDS011;55464;48.266;14.188;2023-05-15T03:05:34;1.48;;;1.35;;
68475;SDS011;55464;48.266;14.188;2023-05-15T03:08:00;1.85;;;1.75;;
68475;SDS011;55464;48.266;14.188;2023-05-15T03:10:25;1.90;;;1.80;;
68475;SDS011;55464;48.266;14.188;2023-05-15T03:12:51;1.67;;;1.58;;
68475;SDS011;55464;48.266;14.188;2023-05-15T03:15:16;2.38;;;1.50;;
68475;SDS011;55464;48.266;14.188;2023-05-15T03:17:42;1.95;;;1.70;;
68475;SDS011;55464;48.266;14.188;2023-05-15T03:20:07;1.92;;;1.83;;
68475;SDS011;55464;48.266;14.188;2023-05-15T03:22:33;2.65;;;1.90;;
68475;SDS011;55464;48.266;14.188;2023-05-15T03:24:58;1.70;;;1.60;;
68475;SDS011;55464;48.266;14.188;2023-05-15T03:27:26;1.60;;;1.50;;
68475;SDS011;55464;48.266;14.188;2023-05-15T03:29:51;1.95;;;1.65;;
68475;SDS011;55464;48.266;14.188;2023-05-15T03:32:17;2.38;;;2.17;;
68475;SDS011;55464;48.266;14.188;2023-05-15T03:34:42;1.80;;;1.70;;
68475;SDS011;55464;48.266;14.188;2023-05-15T03:37:08;2.80;;;2.60;;
68475;SDS011;55464;48.266;14.188;2023-05-15T03:39:33;3.13;;;2.20;;
68475;SDS011;55464;48.266;14.188;2023-05-15T03:41:58;2.05;;;1.73;;
68475;SDS011;55464;48.266;14.188;2023-05-15T03:44:24;2.47;;;2.30;;
68475;SDS011;55464;48.266;14.188;2023-05-15T03:46:49;3.55;;;2.30;;
68475;SDS011;55464;48.266;14.188;2023-05-15T03:49:15;2.00;;;1.90;;
68475;SDS011;55464;48.266;14.188;2023-05-15T03:51:40;1.98;;;1.88;;
68475;SDS011;55464;48.266;14.188;2023-05-15T03:54:06;1.88;;;1.77;;
68475;SDS011;55464;48.266;14.188;2023-05-15T03:56:31;1.73;;;1.63;;
68475;SDS011;55464;48.266;14.188;2023-05-15T03:58:57;2.08;;;1.90;;
68475;SDS011;55464;48.266;14.188;2023-05-15T04:01:23;1.90;;;1.70;;
68475;SDS011;55464;48.266;14.188;2023-05-15T04:03:48;2.00;;;1.90;;
68475;SDS011;55464;48.266;14.188;2023-05-15T04:06:14;2.60;;;2.40;;
68475;SDS011;55464;48.266;14.188;2023-05-15T04:08:39;2.42;;;2.17;;
68475;SDS011;55464;48.266;14.188;2023-05-15T04:11:05;3.20;;;2.67;;
68475;SDS011;55464;48.266;14.188;2023-05-15T04:13:31;1.77;;;1.67;;
68475;SDS011;55464;48.266;14.188;2023-05-15T04:15:56;2.55;;;1.77;;
68475;SDS011;55464;48.266;14.188;2023-05-15T04:18:23;2.30;;;1.70;;
68475;SDS011;55464;48.266;14.188;2023-05-15T04:20:49;2.05;;;1.95;;
68475;SDS011;55464;48.266;14.188;2023-05-15T04:23:16;1.75;;;1.65;;
68475;SDS011;55464;48.266;14.188;2023-05-15T04:25:41;2.28;;;1.38;;
68475;SDS011;55464;48.266;14.188;2023-05-15T04:28:10;2.13;;;1.45;;
68475;SDS011;55464;48.266;14.188;2023-05-15T04:30:36;1.48;;;1.40;;
68475;SDS011;55464;48.266;14.188;2023-05-15T04:33:01;1.70;;;1.60;;
68475;SDS011;55464;48.266;14.188;2023-05-15T04:35:27;1.70;;;1.60;;
68475;SDS011;55464;48.266;14.188;2023-05-15T04:37:53;1.38;;;1.27;;
68475;SDS011;55464;48.266;14.188;2023-05-15T04:40:18;1.60;;;1.50;;
68475;SDS011;55464;48.266;14.188;2023-05-15T04:42:43;1.30;;;1.20;;
68475;SDS011;55464;48.266;14.188;2023-05-15T04:45:09;5.68;;;3.78;;
68475;SDS011;55464;48.266;14.188;2023-05-15T04:47:35;2.90;;;2.60;;
68475;SDS011;55464;48.266;14.188;2023-05-15T04:50:01;3.45;;;2.67;;
68475;SDS011;55464;48.266;14.188;2023-05-15T04:52:26;2.22;;;1.30;;
68475;SDS011;55464;48.266;14.188;2023-05-15T04:54:52;1.60;;;1.50;;
68475;SDS011;55464;48.266;14.188;2023-05-15T04:57:19;1.42;;;1.33;;
68475;SDS011;55464;48.266;14.188;2023-05-15T04:59:45;1.58;;;1.45;;
68475;SDS011;55464;48.266;14.188;2023-05-15T05:02:10;1.42;;;1.40;;
68475;SDS011;55464;48.266;14.188;2023-05-15T05:04:36;1.80;;;1.70;;
68475;SDS011;55464;48.266;14.188;2023-05-15T05:07:01;1.30;;;1.20;;
68475;SDS011;55464;48.266;14.188;2023-05-15T05:09:29;1.50;;;1.40;;
68475;SDS011;55464;48.266;14.188;2023-05-15T05:11:57;1.63;;;1.52;;
68475;SDS011;55464;48.266;14.188;2023-05-15T05:14:23;1.88;;;1.77;;
68475;SDS011;55464;48.266;14.188;2023-05-15T05:16:48;1.98;;;1.88;;
68475;SDS011;55464;48.266;14.188;2023-05-15T05:19:14;1.50;;;1.40;;
68475;SDS011;55464;48.266;14.188;2023-05-15T05:21:39;1.40;;;1.30;;
68475;SDS011;55464;48.266;14.188;2023-05-15T05:24:04;1.92;;;1.83;;
68475;SDS011;55464;48.266;14.188;2023-05-15T05:26:30;2.25;;;2.05;;
68475;SDS011;55464;48.266;14.188;2023-05-15T05:28:55;1.58;;;1.48;;
68475;SDS011;55464;48.266;14.188;2023-05-15T05:31:21;1.90;;;1.80;;
68475;SDS011;55464;48.266;14.188;2023-05-15T05:33:46;2.00;;;1.90;;
68475;SDS011;55464;48.266;14.188;2023-05-15T05:36:13;2.22;;;2.03;;
68475;SDS011;55464;48.266;14.188;2023-05-15T05:38:39;2.13;;;1.92;;
68475;SDS011;55464;48.266;14.188;2023-05-15T05:41:04;2.03;;;1.92;;
68475;SDS011;55464;48.266;14.188;2023-05-15T05:43:30;2.38;;;2.17;;
68475;SDS011;55464;48.266;14.188;2023-05-15T05:45:55;1.92;;;1.83;;
68475;SDS011;55464;48.266;14.188;2023-05-15T05:48:21;1.65;;;1.55;;
68475;SDS011;55464;48.266;14.188;2023-05-15T05:50:46;2.13;;;2.03;;
68475;SDS011;55464;48.266;14.188;2023-05-15T05:53:11;1.98;;;1.73;;
68475;SDS011;55464;48.266;14.188;2023-05-15T05:55:37;2.05;;;1.95;;
68475;SDS011;55464;48.266;14.188;2023-05-15T05:58:02;1.98;;;1.85;;
68475;SDS011;55464;48.266;14.188;2023-05-15T06:00:28;1.90;;;1.80;;
68475;SDS011;55464;48.266;14.188;2023-05-15T06:02:55;2.92;;;2.20;;
68475;SDS011;55464;48.266;14.188;2023-05-15T06:05:23;1.80;;;1.70;;
68475;SDS011;55464;48.266;14.188;2023-05-15T06:07:49;2.17;;;1.90;;
68475;SDS011;55464;48.266;14.188;2023-05-15T06:10:15;2.15;;;1.83;;
68475;SDS011;55464;48.266;14.188;2023-05-15T06:12:41;3.70;;;2.40;;
68475;SDS011;55464;48.266;14.188;2023-05-15T06:15:06;2.25;;;2.10;;
68475;SDS011;55464;48.266;14.188;2023-05-15T06:17:32;2.15;;;2.05;;
68475;SDS011;55464;48.266;14.188;2023-05-15T06:19:57;2.13;;;2.00;;
68475;SDS011;55464;48.266;14.188;2023-05-15T06:22:23;2.17;;;1.83;;
68475;SDS011;55464;48.266;14.188;2023-05-15T06:24:48;1.95;;;1.80;;
68475;SDS011;55464;48.266;14.188;2023-05-15T06:27:14;2.47;;;2.10;;
68475;SDS011;55464;48.266;14.188;2023-05-15T06:29:39;1.90;;;1.80;;
68475;SDS011;55464;48.266;14.188;2023-05-15T06:32:05;2.83;;;1.88;;
68475;SDS011;55464;48.266;14.188;2023-05-15T06:34:30;2.78;;;2.58;;
68475;SDS011;55464;48.266;14.188;2023-05-15T06:36:56;2.88;;;2.67;;
68475;SDS011;55464;48.266;14.188;2023-05-15T06:39:21;4.28;;;2.00;;
68475;SDS011;55464;48.266;14.188;2023-05-15T06:41:47;2.17;;;1.98;;
68475;SDS011;55464;48.266;14.188;2023-05-15T06:44:12;3.53;;;2.17;;
68475;SDS011;55464;48.266;14.188;2023-05-15T06:46:38;2.25;;;2.05;;
68475;SDS011;55464;48.266;14.188;2023-05-15T06:49:03;2.63;;;2.08;;
68475;SDS011;55464;48.266;14.188;2023-05-15T06:51:28;2.08;;;1.98;;
68475;SDS011;55464;48.266;14.188;2023-05-15T06:53:54;2.00;;;1.90;;
68475;SDS011;55464;48.266;14.188;2023-05-15T06:56:20;2.28;;;2.08;;
68475;SDS011;55464;48.266;14.188;2023-05-15T06:58:46;2.78;;;2.10;;
68475;SDS011;55464;48.266;14.188;2023-05-15T07:01:11;4.28;;;2.95;;
68475;SDS011;55464;48.266;14.188;2023-05-15T07:03:36;5.20;;;2.92;;
68475;SDS011;55464;48.266;14.188;2023-05-15T07:06:02;6.63;;;3.03;;
68475;SDS011;55464;48.266;14.188;2023-05-15T07:08:28;4.35;;;2.42;;
68475;SDS011;55464;48.266;14.188;2023-05-15T07:10:53;2.63;;;2.38;;
68475;SDS011;55464;48.266;14.188;2023-05-15T07:13:19;2.08;;;1.88;;
68475;SDS011;55464;48.266;14.188;2023-05-15T07:15:45;1.80;;;1.70;;
68475;SDS011;55464;48.266;14.188;2023-05-15T07:18:11;2.30;;;1.85;;
68475;SDS011;55464;48.266;14.188;2023-05-15T07:20:36;1.40;;;1.30;;
68475;SDS011;55464;48.266;14.188;2023-05-15T07:23:02;1.55;;;1.45;;
68475;SDS011;55464;48.266;14.188;2023-05-15T07:25:28;1.60;;;1.45;;
68475;SDS011;55464;48.266;14.188;2023-05-15T07:27:53;1.77;;;1.67;;
68475;SDS011;55464;48.266;14.188;2023-05-15T07:30:19;1.80;;;1.70;;
68475;SDS011;55464;48.266;14.188;2023-05-15T07:32:44;1.60;;;1.50;;
68475;SDS011;55464;48.266;14.188;2023-05-15T07:35:10;1.52;;;1.42;;
68475;SDS011;55464;48.266;14.188;2023-05-15T07:37:38;1.40;;;1.30;;
68475;SDS011;55464;48.266;14.188;2023-05-15T07:40:05;1.50;;;1.40;;
68475;SDS011;55464;48.266;14.188;2023-05-15T07:42:31;1.05;;;1.05;;
68475;SDS011;55464;48.266;14.188;2023-05-15T07:44:56;1.25;;;1.15;;
68475;SDS011;55464;48.266;14.188;2023-05-15T07:47:22;2.15;;;1.08;;
68475;SDS011;55464;48.266;14.188;2023-05-15T07:49:47;2.05;;;1.17;;
68475;SDS011;55464;48.266;14.188;2023-05-15T07:52:12;1.08;;;1.08;;
68475;SDS011;55464;48.266;14.188;2023-05-15T07:54:38;1.00;;;1.00;;
68475;SDS011;55464;48.266;14.188;2023-05-15T07:57:05;1.20;;;1.10;;
68475;SDS011;55464;48.266;14.188;2023-05-15T07:59:32;2.25;;;0.80;;
68475;SDS011;55464;48.266;14.188;2023-05-15T08:01:59;0.88;;;0.88;;
68475;SDS011;55464;48.266;14.188;2023-05-15T08:04:24;0.93;;;0.93;;
68475;SDS011;55464;48.266;14.188;2023-05-15T08:06:50;0.75;;;0.75;;
68475;SDS011;55464;48.266;14.188;2023-05-15T08:09:15;3.72;;;0.70;;
68475;SDS011;55464;48.266;14.188;2023-05-15T08:11:41;1.83;;;0.50;;
68475;SDS011;55464;48.266;14.188;2023-05-15T08:14:06;0.70;;;0.70;;
68475;SDS011;55464;48.266;14.188;2023-05-15T08:16:31;0.88;;;0.88;;
68475;SDS011;55464;48.266;14.188;2023-05-15T08:18:57;0.70;;;0.70;;
68475;SDS011;55464;48.266;14.188;2023-05-15T08:21:26;0.60;;;0.60;;
68475;SDS011;55464;48.266;14.188;2023-05-15T08:23:52;0.70;;;0.70;;
68475;SDS011;55464;48.266;14.188;2023-05-15T08:26:17;1.45;;;1.35;;
68475;SDS011;55464;48.266;14.188;2023-05-15T08:28:43;1.10;;;1.10;;
68475;SDS011;55464;48.266;14.188;2023-05-15T08:31:08;1.48;;;1.38;;
68475;SDS011;55464;48.266;14.188;2023-05-15T08:33:33;1.23;;;1.13;;
68475;SDS011;55464;48.266;14.188;2023-05-15T08:35:59;0.70;;;0.70;;
68475;SDS011;55464;48.266;14.188;2023-05-15T08:38:24;0.63;;;0.63;;
68475;SDS011;55464;48.266;14.188;2023-05-15T08:40:50;0.40;;;0.40;;
68475;SDS011;55464;48.266;14.188;2023-05-15T08:43:18;0.90;;;0.70;;
68475;SDS011;55464;48.266;14.188;2023-05-15T08:45:46;0.90;;;0.90;;
68475;SDS011;55464;48.266;14.188;2023-05-15T08:48:14;0.75;;;0.75;;
68475;SDS011;55464;48.266;14.188;2023-05-15T08:50:43;0.60;;;0.60;;
68475;SDS011;55464;48.266;14.188;2023-05-15T08:53:12;0.65;;;0.50;;
68475;SDS011;55464;48.266;14.188;2023-05-15T08:55:38;0.60;;;0.40;;
68475;SDS011;55464;48.266;14.188;2023-05-15T08:58:05;0.52;;;0.52;;
68475;SDS011;55464;48.266;14.188;2023-05-15T09:00:31;0.40;;;0.40;;
68475;SDS011;55464;48.266;14.188;2023-05-15T09:02:58;1.25;;;0.50;;
68475;SDS011;55464;48.266;14.188;2023-05-15T09:05:25;1.15;;;1.02;;
68475;SDS011;55464;48.266;14.188;2023-05-15T09:07:50;0.90;;;0.90;;
68475;SDS011;55464;48.266;14.188;2023-05-15T09:10:18;0.73;;;0.73;;
68475;SDS011;55464;48.266;14.188;2023-05-15T09:12:45;0.80;;;0.65;;
68475;SDS011;55464;48.266;14.188;2023-05-15T09:15:11;0.60;;;0.60;;
68475;SDS011;55464;48.266;14.188;2023-05-15T09:17:41;0.43;;;0.43;;
68475;SDS011;55464;48.266;14.188;2023-05-15T09:20:28;0.47;;;0.47;;
68475;SDS011;55464;48.266;14.188;2023-05-15T09:22:55;0.60;;;0.60;;
68475;SDS011;55464;48.266;14.188;2023-05-15T09:25:35;0.75;;;0.60;;
68475;SDS011;55464;48.266;14.188;2023-05-15T09:28:02;0.50;;;0.50;;
68475;SDS011;55464;48.266;14.188;2023-05-15T09:30:27;1.10;;;1.00;;
68475;SDS011;55464;48.266;14.188;2023-05-15T09:32:55;2.15;;;1.25;;
68475;SDS011;55464;48.266;14.188;2023-05-15T09:35:34;0.98;;;0.98;;
68475;SDS011;55464;48.266;14.188;2023-05-15T09:38:00;1.95;;;1.10;;
68475;SDS011;55464;48.266;14.188;2023-05-15T09:40:31;2.15;;;1.52;;
68475;SDS011;55464;48.266;14.188;2023-05-15T09:42:57;1.00;;;1.00;;
68475;SDS011;55464;48.266;14.188;2023-05-15T09:45:23;0.90;;;0.90;;
68475;SDS011;55464;48.266;14.188;2023-05-15T09:47:50;0.82;;;0.82;;
68475;SDS011;55464;48.266;14.188;2023-05-15T09:50:19;0.95;;;0.90;;
68475;SDS011;55464;48.266;14.188;2023-05-15T09:52:49;1.15;;;1.05;;
68475;SDS011;55464;48.266;14.188;2023-05-15T09:55:16;1.20;;;1.05;;
68475;SDS011;55464;48.266;14.188;2023-05-15T09:57:44;1.40;;;1.30;;
68475;SDS011;55464;48.266;14.188;2023-05-15T10:00:28;0.93;;;0.93;;
68475;SDS011;55464;48.266;14.188;2023-05-15T10:02:56;1.50;;;1.40;;
68475;SDS011;55464;48.266;14.188;2023-05-15T10:05:22;1.40;;;1.30;;
68475;SDS011;55464;48.266;14.188;2023-05-15T10:07:53;1.30;;;1.20;;
68475;SDS011;55464;48.266;14.188;2023-05-15T10:10:19;1.67;;;1.58;;
68475;SDS011;55464;48.266;14.188;2023-05-15T10:12:44;1.00;;;0.90;;
68475;SDS011;55464;48.266;14.188;2023-05-15T10:15:11;0.90;;;0.90;;
68475;SDS011;55464;48.266;14.188;2023-05-15T10:17:37;1.20;;;1.00;;
68475;SDS011;55464;48.266;14.188;2023-05-15T10:20:04;1.20;;;1.10;;
68475;SDS011;55464;48.266;14.188;2023-05-15T10:22:31;1.00;;;1.00;;
68475;SDS011;55464;48.266;14.188;2023-05-15T10:25:06;1.20;;;1.10;;
68475;SDS011;55464;48.266;14.188;2023-05-15T10:27:37;1.35;;;1.17;;
68475;SDS011;55464;48.266;14.188;2023-05-15T10:30:06;1.33;;;1.23;;
68475;SDS011;55464;48.266;14.188;2023-05-15T10:32:31;2.63;;;2.42;;
68475;SDS011;55464;48.266;14.188;2023-05-15T10:34:58;1.30;;;1.20;;
68475;SDS011;55464;48.266;14.188;2023-05-15T10:37:24;1.42;;;1.33;;
68475;SDS011;55464;48.266;14.188;2023-05-15T10:39:52;1.67;;;1.20;;
68475;SDS011;55464;48.266;14.188;2023-05-15T10:42:19;2.88;;;1.38;;
68475;SDS011;55464;48.266;14.188;2023-05-15T10:44:46;1.45;;;1.35;;
68475;SDS011;55464;48.266;14.188;2023-05-15T10:47:12;1.63;;;1.52;;
68475;SDS011;55464;48.266;14.188;2023-05-15T10:49:38;1.73;;;1.63;;
68475;SDS011;55464;48.266;14.188;2023-05-15T10:52:04;2.88;;;1.80;;
68475;SDS011;55464;48.266;14.188;2023-05-15T10:54:29;1.70;;;1.60;;
68475;SDS011;55464;48.266;14.188;2023-05-15T10:56:55;1.60;;;1.50;;
68475;SDS011;55464;48.266;14.188;2023-05-15T10:59:21;1.95;;;1.80;;
68475;SDS011;55464;48.266;14.188;2023-05-15T11:01:55;2.47;;;2.08;;
68475;SDS011;55464;48.266;14.188;2023-05-15T11:04:21;1.60;;;1.50;;
68475;SDS011;55464;48.266;14.188;2023-05-15T11:06:48;1.20;;;1.10;;
68475;SDS011;55464;48.266;14.188;2023-05-15T11:14:26;2.10;;;1.02;;
68475;SDS011;55464;48.266;14.188;2023-05-15T11:19:36;1.20;;;1.10;;
68475;SDS011;55464;48.266;14.188;2023-05-15T11:22:25;1.52;;;1.42;;
68475;SDS011;55464;48.266;14.188;2023-05-15T11:25:04;2.97;;;1.60;;
68475;SDS011;55464;48.266;14.188;2023-05-15T11:27:39;1.70;;;1.60;;
68475;SDS011;55464;48.266;14.188;2023-05-15T11:37:58;1.23;;;1.13;;
68475;SDS011;55464;48.266;14.188;2023-05-15T11:40:27;0.93;;;0.93;;
68475;SDS011;55464;48.266;14.188;2023-05-15T11:43:04;0.85;;;0.85;;
68475;SDS011;55464;48.266;14.188;2023-05-15T11:45:35;0.95;;;0.95;;
68475;SDS011;55464;48.266;14.188;2023-05-15T11:48:03;3.08;;;1.10;;
68475;SDS011;55464;48.266;14.188;2023-05-15T11:50:31;1.27;;;1.10;;
68475;SDS011;55464;48.266;14.188;2023-05-15T11:53:00;1.45;;;1.35;;
68475;SDS011;55464;48.266;14.188;2023-05-15T11:55:30;0.82;;;0.82;;
68475;SDS011;55464;48.266;14.188;2023-05-15T11:57:57;1.20;;;1.20;;
68475;SDS011;55464;48.266;14.188;2023-05-15T12:00:23;1.50;;;1.40;;
68475;SDS011;55464;48.266;14.188;2023-05-15T12:02:48;1.70;;;1.60;;
68475;SDS011;55464;48.266;14.188;2023-05-15T12:05:14;0.95;;;0.95;;
68475;SDS011;55464;48.266;14.188;2023-05-15T12:07:40;0.95;;;0.90;;
68475;SDS011;55464;48.266;14.188;2023-05-15T12:10:08;1.00;;;1.00;;
68475;SDS011;55464;48.266;14.188;2023-05-15T12:12:43;1.67;;;1.05;;
68475;SDS011;55464;48.266;14.188;2023-05-15T12:15:13;1.20;;;1.10;;
68475;SDS011;55464;48.266;14.188;2023-05-15T12:17:40;0.88;;;0.88;;
68475;SDS011;55464;48.266;14.188;2023-05-15T12:20:09;1.10;;;1.10;;
68475;SDS011;55464;48.266;14.188;2023-05-15T12:22:39;1.17;;;1.10;;
68475;SDS011;55464;48.266;14.188;2023-05-15T12:27:32;1.13;;;1.10;;
68475;SDS011;55464;48.266;14.188;2023-05-15T12:29:59;2.75;;;1.10;;
68475;SDS011;55464;48.266;14.188;2023-05-15T12:32:25;1.13;;;1.05;;
68475;SDS011;55464;48.266;14.188;2023-05-15T12:34:51;1.15;;;1.05;;
68475;SDS011;55464;48.266;14.188;2023-05-15T12:37:18;2.65;;;1.05;;
68475;SDS011;55464;48.266;14.188;2023-05-15T12:39:52;1.75;;;1.20;;
68475;SDS011;55464;48.266;14.188;2023-05-15T12:42:21;1.70;;;1.15;;
68475;SDS011;55464;48.266;14.188;2023-05-15T12:44:53;1.30;;;1.20;;
68475;SDS011;55464;48.266;14.188;2023-05-15T12:47:26;1.13;;;1.10;;
68475;SDS011;55464;48.266;14.188;2023-05-15T12:49:58;0.82;;;0.82;;
68475;SDS011;55464;48.266;14.188;2023-05-15T12:52:27;1.98;;;1.77;;
68475;SDS011;55464;48.266;14.188;2023-05-15T12:54:52;0.93;;;0.93;;
68475;SDS011;55464;48.266;14.188;2023-05-15T12:57:18;1.30;;;1.20;;
68475;SDS011;55464;48.266;14.188;2023-05-15T12:59:44;1.50;;;1.40;;
68475;SDS011;55464;48.266;14.188;2023-05-15T13:02:11;1.30;;;1.20;;
68475;SDS011;55464;48.266;14.188;2023-05-15T13:04:37;3.00;;;1.13;;
68475;SDS011;55464;48.266;14.188;2023-05-15T13:07:02;1.70;;;1.33;;
68475;SDS011;55464;48.266;14.188;2023-05-15T13:09:28;1.42;;;1.33;;
68475;SDS011;55464;48.266;14.188;2023-05-15T13:11:54;1.80;;;1.70;;
68475;SDS011;55464;48.266;14.188;2023-05-15T13:14:20;3.40;;;1.90;;
68475;SDS011;55464;48.266;14.188;2023-05-15T13:16:47;9.65;;;3.22;;
68475;SDS011;55464;48.266;14.188;2023-05-15T13:19:12;1.77;;;1.67;;
68475;SDS011;55464;48.266;14.188;2023-05-15T13:21:38;1.83;;;1.73;;
68475;SDS011;55464;48.266;14.188;2023-05-15T13:24:04;4.75;;;2.25;;
68475;SDS011;55464;48.266;14.188;2023-05-15T13:26:30;2.72;;;1.95;;
68475;SDS011;55464;48.266;14.188;2023-05-15T13:28:55;2.25;;;2.03;;
68475;SDS011;55464;48.266;14.188;2023-05-15T13:31:21;2.47;;;2.33;;
68475;SDS011;55464;48.266;14.188;2023-05-15T13:33:46;2.95;;;2.50;;
68475;SDS011;55464;48.266;14.188;2023-05-15T13:36:12;4.18;;;2.63;;
68475;SDS011;55464;48.266;14.188;2023-05-15T13:38:37;3.25;;;2.10;;
68475;SDS011;55464;48.266;14.188;2023-05-15T13:41:03;6.30;;;2.42;;
68475;SDS011;55464;48.266;14.188;2023-05-15T13:43:29;2.92;;;2.50;;
68475;SDS011;55464;48.266;14.188;2023-05-15T13:45:55;2.53;;;2.33;;
68475;SDS011;55464;48.266;14.188;2023-05-15T13:48:21;3.60;;;2.25;;
68475;SDS011;55464;48.266;14.188;2023-05-15T13:50:46;3.00;;;2.20;;
68475;SDS011;55464;48.266;14.188;2023-05-15T13:53:12;2.40;;;2.22;;
68475;SDS011;55464;48.266;14.188;2023-05-15T13:55:41;2.35;;;2.15;;
68475;SDS011;55464;48.266;14.188;2023-05-15T13:58:12;2.63;;;2.37;;
68475;SDS011;55464;48.266;14.188;2023-05-15T14:00:38;2.72;;;2.30;;
68475;SDS011;55464;48.266;14.188;2023-05-15T14:03:06;2.00;;;1.80;;
68475;SDS011;55464;48.266;14.188;2023-05-15T14:05:31;2.15;;;2.05;;
68475;SDS011;55464;48.266;14.188;2023-05-15T14:07:57;4.13;;;2.38;;
68475;SDS011;55464;48.266;14.188;2023-05-15T14:10:23;2.80;;;2.38;;
68475;SDS011;55464;48.266;14.188;2023-05-15T14:12:48;2.97;;;2.67;;
68475;SDS011;55464;48.266;14.188;2023-05-15T14:15:14;2.63;;;2.40;;
68475;SDS011;55464;48.266;14.188;2023-05-15T14:17:40;3.30;;;2.50;;
68475;SDS011;55464;48.266;14.188;2023-05-15T14:20:07;2.47;;;2.22;;
68475;SDS011;55464;48.266;14.188;2023-05-15T14:22:36;3.73;;;2.13;;
68475;SDS011;55464;48.266;14.188;2023-05-15T14:25:02;3.03;;;2.45;;
68475;SDS011;55464;48.266;14.188;2023-05-15T14:27:29;2.58;;;2.15;;
68475;SDS011;55464;48.266;14.188;2023-05-15T14:29:54;3.40;;;2.28;;
68475;SDS011;55464;48.266;14.188;2023-05-15T14:32:23;2.83;;;2.50;;
68475;SDS011;55464;48.266;14.188;2023-05-15T14:34:49;3.38;;;2.80;;
68475;SDS011;55464;48.266;14.188;2023-05-15T14:37:14;4.65;;;2.25;;
68475;SDS011;55464;48.266;14.188;2023-05-15T14:39:40;2.92;;;2.20;;
68475;SDS011;55464;48.266;14.188;2023-05-15T14:42:05;3.45;;;2.55;;
68475;SDS011;55464;48.266;14.188;2023-05-15T14:44:31;2.50;;;2.30;;
68475;SDS011;55464;48.266;14.188;2023-05-15T14:47:30;2.30;;;2.08;;
68475;SDS011;55464;48.266;14.188;2023-05-15T14:49:51;3.05;;;2.60;;
68475;SDS011;55464;48.266;14.188;2023-05-15T14:52:17;2.78;;;2.40;;
68475;SDS011;55464;48.266;14.188;2023-05-15T14:54:42;2.15;;;1.75;;
68475;SDS011;55464;48.266;14.188;2023-05-15T14:57:08;4.35;;;2.40;;
68475;SDS011;55464;48.266;14.188;2023-05-15T14:59:33;2.03;;;1.92;;
68475;SDS011;55464;48.266;14.188;2023-05-15T15:01:58;2.80;;;1.77;;
68475;SDS011;55464;48.266;14.188;2023-05-15T15:04:24;2.78;;;2.00;;
68475;SDS011;55464;48.266;14.188;2023-05-15T15:06:51;3.40;;;1.95;;
68475;SDS011;55464;48.266;14.188;2023-05-15T15:09:20;3.05;;;2.33;;